Flight Track Log - Related Links

Times and Time Zones

All times are in EST time to prevent confusion due to time zone crossing. See the DAL1562 flight status page for this flight to view local times or setup timezone preferences in your user account.

Time Position Orientation Groundspeed Altitude Reporting Facility
EST Latitude Longitude Course Direction KTS MPH feet Rate Location/Type
Sat 01:51:13 PM 27.3833 -82.5500 North 174 200 800  Level Tampa TRACON
Sat 01:51:37 PM 27.3667 -82.5333 138° Southeast 160 184 1,700 2,441 Climbing Tampa TRACON
Sat 01:53:11 PM 27.3081 -82.5336 180° South 153 176 5,600 2,182 Climbing Miami Center
Sat 01:54:00 PM 27.7236 -82.6470 North  Level Estimated
Sat 01:54:11 PM 27.3431 -82.5983 301° West 91 105 7,300  Level Miami Center
Sat 01:55:00 PM 27.8330 -82.6781 North  Level Estimated
Sat 01:55:11 PM 27.3903 -82.6683 307° West 204 235 10,100  Level Miami Center
Sat 01:56:00 PM 27.9424 -82.7091 North  Level Estimated
Sat 01:56:11 PM 27.4414 -82.7506 305° West 259 298 12,100  Level Miami Center
Sat 01:57:11 PM 27.5208 -82.7967 333° Northwest 312 359 14,100 2,184 Climbing Miami Center
Sat 01:59:37 PM 27.7703 -82.7847 North 360 414 19,600 1,864 Climbing Jacksonville Center
Sat 02:00:37 PM 27.8808 -82.7869 359° North 373 429 20,500 756 Climbing Jacksonville Center
Sat 02:01:36 PM 27.9872 -82.7869 360° North 392 451 21,100 600 Climbing Jacksonville Center
Sat 02:02:37 PM 28.1144 -82.7844 North 426 490 21,700 942 Climbing Jacksonville Center
Sat 02:03:37 PM 28.2481 -82.7842 360° North 456 525 23,000 1,210 Climbing Jacksonville Center
Sat 02:04:36 PM 28.3856 -82.7839 360° North 478 550 24,100 1,160 Climbing Jacksonville Center
Sat 02:05:36 PM 28.5150 -82.8147 348° North 478 550 25,300 1,289 Climbing Jacksonville Center
Sat 02:06:37 PM 28.6403 -82.8736 338° Northwest 478 550 26,700 1,438 Climbing Jacksonville Center
Sat 02:07:37 PM 28.7697 -82.9542 331° Northwest 478 550 28,200 1,412 Climbing Jacksonville Center
Sat 02:08:36 PM 28.8844 -83.0183 334° Northwest 470 541 29,500 1,059 Climbing Jacksonville Center
Sat 02:09:36 PM 29.0014 -83.0897 332° Northwest 470 541 30,300 850 Climbing Jacksonville Center
Sat 02:10:36 PM 29.1222 -83.1564 334° Northwest 470 541 31,200 1,050 Climbing Jacksonville Center
Sat 02:11:36 PM 29.2389 -83.2258 333° Northwest 470 541 32,400 843 Climbing Jacksonville Center
Sat 02:12:37 PM 29.3556 -83.2953 333° Northwest 470 541 32,900 694 Climbing Jacksonville Center
Sat 02:13:37 PM 29.4744 -83.3650 333° Northwest 470 541 33,800 550 Climbing Jacksonville Center
Sat 02:14:37 PM 29.5931 -83.4322 334° Northwest 470 541 34,000 101 Climbing Jacksonville Center
Sat 02:15:36 PM 29.7117 -83.5022 333° Northwest 470 541 34,000 -50 Level Jacksonville Center
Sat 02:16:37 PM 29.8158 -83.5653 332° Northwest 470 541 33,900  Descending Jacksonville Center
Sat 02:17:36 PM 29.9325 -83.6331 333° Northwest 470 541 34,000 50 Climbing Jacksonville Center
Sat 02:18:37 PM 30.0469 -83.6989 334° Northwest 470 541 34,000  Level Jacksonville Center
Sat 02:19:36 PM 30.1653 -83.7694 333° Northwest 470 541 34,000  Level Jacksonville Center
Sat 02:20:37 PM 30.2797 -83.8356 333° Northwest 470 541 34,000  Level Jacksonville Center
Sat 02:21:37 PM 30.3942 -83.9042 333° Northwest 470 541 34,000  Level Jacksonville Center
Sat 02:22:37 PM 30.5083 -83.9728 333° Northwest 465 535 34,000  Level Jacksonville Center
Sat 02:23:37 PM 30.6206 -84.0392 333° Northwest 457 526 34,000  Level Jacksonville Center
Sat 02:24:37 PM 30.7325 -84.1106 331° Northwest 457 526 34,000  Level Jacksonville Center
Sat 02:25:37 PM 30.8467 -84.1797 333° Northwest 457 526 34,000  Level Jacksonville Center
Sat 02:26:37 PM 30.9589 -84.2467 333° Northwest 457 526 34,000  Level Jacksonville Center
Sat 02:27:37 PM 31.0728 -84.3164 332° Northwest 457 526 34,000  Level Jacksonville Center
Sat 02:29:51 PM 31.3200 -84.4692 332° Northwest 456 525 34,000  Level Atlanta Center
Sat 02:30:51 PM 31.4325 -84.5378 333° Northwest 451 519 34,000  Level Atlanta Center
Sat 02:31:51 PM 31.5428 -84.6067 332° Northwest 456 525 34,000  Level Atlanta Center
Sat 02:32:51 PM 31.6553 -84.6756 332° Northwest 451 519 34,000  Level Atlanta Center
Sat 02:33:51 PM 31.7675 -84.7447 332° Northwest 451 519 34,000 -650 Level Atlanta Center
Sat 02:34:51 PM 31.8800 -84.8117 333° Northwest 456 525 32,700 -1,050 Descending Atlanta Center
Sat 02:35:51 PM 32.0047 -84.8544 344° North 461 531 31,900 -950 Descending Atlanta Center
Sat 02:36:51 PM 32.1319 -84.8997 343° North 466 536 30,800 -1,100 Descending Atlanta Center
Sat 02:37:51 PM 32.2692 -84.9403 346° North 466 536 29,700 -1,550 Descending Atlanta Center
Sat 02:38:51 PM 32.3964 -84.9833 344° North 471 542 27,700 -2,400 Descending Atlanta Center
Sat 02:39:51 PM 32.5275 -85.0292 344° North 480 552 24,900 -2,850 Descending Atlanta Center
Sat 02:40:51 PM 32.6442 -85.0453 353° North 450 518 22,000 -2,950 Descending Atlanta Center
Sat 02:41:51 PM 32.7611 -85.0417 North 450 518 19,000 -2,950 Descending Atlanta Center
Sat 02:42:51 PM 32.8989 -85.0433 359° North 450 518 16,100 -2,500 Descending Atlanta Center
Sat 02:43:51 PM 33.0053 -85.0419 North 434 499 14,000 -1,900 Descending Atlanta Center
Sat 02:44:51 PM 33.1161 -85.0408 360° North 409 471 12,300 -1,150 Descending Atlanta Center
Sat 02:45:51 PM 33.2103 -85.0097 15° North 370 426 11,700 -1,050 Descending Atlanta Center
Sat 02:46:51 PM 33.2672 -84.9283 50° Northeast 309 356 10,200 -1,500 Descending Atlanta Center
Sat 02:47:51 PM 33.3261 -84.8494 48° Northeast 309 356 8,700 -1,500 Descending Atlanta Center
Sat 02:48:51 PM 33.3994 -84.8128 23° Northeast 287 330 7,200 -1,650 Descending Atlanta Center
Sat 02:49:51 PM 33.4892 -84.8133 360° North 282 325 5,400 -1,650 Descending Atlanta Center
Sat 02:50:51 PM 33.5686 -84.8092 North 287 330 3,900 -1,100 Descending Atlanta Center
Sat 02:51:51 PM 33.6189 -84.7572 41° Northeast 242 278 3,200 -450 Descending Atlanta Center
Sat 02:52:51 PM 33.6214 -84.6975 87° East 180 207 3,000 -67 Descending Atlanta Center
Sat 02:54:51 PM 33.6167 -84.5667 92° East 179 206 3,000 -290 Level Atlanta TRACON
Sat 02:55:57 PM 33.6167 -84.5167 90° East 164 189 2,100 -800 Descending Atlanta TRACON
Sat 02:56:51 PM 33.6167 -84.4667 90° East 138 159 1,400 -778 Descending Atlanta TRACON

Login

Don't have an account? Register now (free) for customized features, flight alerts, and more!